Time;durP1;ratioP1;P1;durP2;ratioP2;P2;SDS_P1;SDS_P2;PMS_P1;PMS_P2;Temp;Humidity;BMP_temperature;BMP_pressure;BME280_temperature;BME280_humidity;BME280_pressure;Samples;Min_cycle;Max_cycle;Signal;HPM_P1;HPM_P2
2021/04/17 00:02:22;;;;;;;;;;;18.80;50.40;;;;;;5025609;28;19933;-60
2021/04/17 00:04:49;;;;;;;;;;;18.80;50.50;;;;;;5040491;28;19932;-60
2021/04/17 00:07:16;;;;;;;;;;;18.80;50.50;;;;;;5042503;28;20357;-60
2021/04/17 00:09:43;;;;;;;;;;;18.70;50.40;;;;;;5035354;28;19929;-60
2021/04/17 00:12:14;;;;;;;;;;;18.70;50.40;;;;;;5044252;28;20417;-60
2021/04/17 00:14:41;;;;;;;;;;;18.70;50.40;;;;;;5036036;28;19970;-60
2021/04/17 00:17:12;;;;;;;;;;;18.70;50.30;;;;;;5026786;28;19932;-60
2021/04/17 00:19:39;;;;;;;;;;;18.70;50.30;;;;;;5041230;28;19924;-60
2021/04/17 00:22:06;;;;;;;;;;;18.70;50.30;;;;;;5036112;28;19931;-60
2021/04/17 00:24:32;;;;;;;;;;;18.70;50.40;;;;;;5040531;28;19937;-60
2021/04/17 00:26:59;;;;;;;;;;;18.70;50.30;;;;;;5030295;28;19924;-60
2021/04/17 00:29:25;;;;;;;;;;;18.70;50.30;;;;;;5040903;28;19953;-60
2021/04/17 00:31:51;;;;;;;;;;;18.70;50.30;;;;;;5042203;28;20377;-60
2021/04/17 00:34:18;;;;;;;;;;;18.70;50.30;;;;;;5039326;28;20066;-60
2021/04/17 00:36:44;;;;;;;;;;;18.70;50.30;;;;;;5013529;28;20286;-60
2021/04/17 00:39:10;;;;;;;;;;;18.70;50.30;;;;;;5036898;28;19925;-60
2021/04/17 00:41:36;;;;;;;;;;;18.60;50.10;;;;;;5034590;28;19967;-60
2021/04/17 00:44:03;;;;;;;;;;;18.60;50.10;;;;;;5036640;28;20259;-60
2021/04/17 00:46:30;;;;;;;;;;;18.60;50.10;;;;;;5039358;28;22531;-59
2021/04/17 00:48:57;;;;;;;;;;;18.60;50.10;;;;;;5042717;28;19933;-60
2021/04/17 00:51:23;;;;;;;;;;;18.60;50.10;;;;;;5047472;28;19975;-60
2021/04/17 00:53:50;;;;;;;;;;;18.60;50.10;;;;;;5038047;28;19985;-60
2021/04/17 00:56:18;;;;;;;;;;;18.60;50.10;;;;;;5042162;28;19978;-60
2021/04/17 00:58:44;;;;;;;;;;;18.60;50.10;;;;;;5036399;28;19929;-61
2021/04/17 01:01:10;;;;;;;;;;;18.60;50.10;;;;;;5047268;28;19928;-60
2021/04/17 01:04:00;;;;;;;;;;;18.60;50.00;;;;;;5034052;28;19925;-61
2021/04/17 01:06:32;;;;;;;;;;;18.60;50.10;;;;;;5029883;28;20270;-59
2021/04/17 01:09:05;;;;;;;;;;;18.50;50.00;;;;;;5043302;28;20749;-60
2021/04/17 01:11:41;;;;;;;;;;;18.60;50.00;;;;;;5046897;28;20577;-60
2021/04/17 01:14:08;;;;;;;;;;;18.60;50.00;;;;;;5039405;28;20374;-60
2021/04/17 01:16:34;;;;;;;;;;;18.50;49.90;;;;;;5043202;28;19932;-60
2021/04/17 01:19:02;;;;;;;;;;;18.50;50.00;;;;;;5043928;28;20554;-59
2021/04/17 01:21:29;;;;;;;;;;;18.50;49.90;;;;;;5022943;28;19925;-60
2021/04/17 01:24:00;;;;;;;;;;;18.50;49.90;;;;;;5037348;28;19925;-60
2021/04/17 01:26:26;;;;;;;;;;;18.50;50.00;;;;;;5041259;28;19929;-60
2021/04/17 01:28:54;;;;;;;;;;;18.50;50.00;;;;;;5049447;28;19924;-60
2021/04/17 01:31:22;;;;;;;;;;;18.50;49.90;;;;;;5039865;28;19933;-59
2021/04/17 01:33:51;;;;;;;;;;;18.50;49.90;;;;;;5040426;28;19951;-60
2021/04/17 01:36:17;;;;;;;;;;;18.40;49.90;;;;;;5035692;28;19925;-60
2021/04/17 01:38:51;;;;;;;;;;;18.50;50.00;;;;;;5044767;28;19940;-59
2021/04/17 01:41:26;;;;;;;;;;;18.40;49.90;;;;;;5033866;28;19932;-60
2021/04/17 01:43:54;;;;;;;;;;;18.40;49.90;;;;;;5029331;28;20503;-60
2021/04/17 01:46:24;;;;;;;;;;;18.40;49.80;;;;;;5040226;28;20318;-60
2021/04/17 01:48:52;;;;;;;;;;;18.40;49.90;;;;;;5048754;28;19974;-60
2021/04/17 01:51:19;;;;;;;;;;;18.40;50.50;;;;;;5045104;28;20258;-60
2021/04/17 01:53:45;;;;;;;;;;;18.40;49.90;;;;;;5045630;28;19936;-60
2021/04/17 01:56:12;;;;;;;;;;;18.40;49.90;;;;;;5015475;28;19933;-60
2021/04/17 01:58:39;;;;;;;;;;;18.40;49.90;;;;;;5044095;28;19936;-60
2021/04/17 02:01:06;;;;;;;;;;;18.40;49.90;;;;;;5033103;28;20439;-60
2021/04/17 02:03:32;;;;;;;;;;;18.40;50.00;;;;;;5043334;28;19925;-58
2021/04/17 02:05:58;;;;;;;;;;;18.40;49.90;;;;;;5049071;28;19956;-61
2021/04/17 02:08:25;;;;;;;;;;;18.30;49.90;;;;;;5041923;28;19933;-60
2021/04/17 02:10:51;;;;;;;;;;;18.40;49.90;;;;;;5038417;28;19924;-59
2021/04/17 02:13:18;;;;;;;;;;;18.30;49.90;;;;;;5040303;28;20538;-59
2021/04/17 02:15:45;;;;;;;;;;;18.40;49.90;;;;;;5038926;28;19929;-58
2021/04/17 02:18:23;;;;;;;;;;;18.30;49.90;;;;;;5048302;28;20269;-59
2021/04/17 02:20:56;;;;;;;;;;;18.30;49.90;;;;;;5041406;28;20325;-60
2021/04/17 02:23:22;;;;;;;;;;;18.30;49.90;;;;;;5040368;28;20381;-61
2021/04/17 02:25:49;;;;;;;;;;;18.30;49.90;;;;;;5049521;28;20488;-60
2021/04/17 02:28:15;;;;;;;;;;;18.30;49.90;;;;;;5034571;28;19925;-60
2021/04/17 02:30:41;;;;;;;;;;;18.30;49.90;;;;;;5043355;28;19944;-60
2021/04/17 02:33:08;;;;;;;;;;;18.30;49.90;;;;;;5049017;28;19928;-59
2021/04/17 02:35:34;;;;;;;;;;;18.20;49.90;;;;;;5047626;28;19932;-60
2021/04/17 02:38:01;;;;;;;;;;;18.20;49.90;;;;;;5030914;28;19932;-59
2021/04/17 02:40:27;;;;;;;;;;;18.20;49.80;;;;;;5045955;28;20035;-59
2021/04/17 02:42:53;;;;;;;;;;;18.20;49.90;;;;;;5050226;28;19928;-59
2021/04/17 02:45:19;;;;;;;;;;;18.20;49.90;;;;;;5047472;28;19925;-61
2021/04/17 02:47:45;;;;;;;;;;;18.20;49.90;;;;;;5021750;28;19924;-59
2021/04/17 02:50:12;;;;;;;;;;;18.30;49.90;;;;;;5045793;28;19925;-61
2021/04/17 02:52:38;;;;;;;;;;;18.20;49.90;;;;;;5048741;28;19956;-59
2021/04/17 02:55:05;;;;;;;;;;;18.20;49.80;;;;;;5046324;28;19948;-61
2021/04/17 02:57:31;;;;;;;;;;;18.20;49.90;;;;;;5035473;28;19931;-60
2021/04/17 02:59:57;;;;;;;;;;;18.20;49.80;;;;;;5044964;28;20356;-59
2021/04/17 03:02:23;;;;;;;;;;;18.20;49.80;;;;;;5041205;28;19925;-59
2021/04/17 03:04:50;;;;;;;;;;;18.20;49.80;;;;;;5040600;28;19983;-60
2021/04/17 03:07:16;;;;;;;;;;;18.20;49.90;;;;;;5043542;28;19929;-59
2021/04/17 03:09:42;;;;;;;;;;;18.20;49.80;;;;;;5039714;28;19971;-60
2021/04/17 03:12:09;;;;;;;;;;;18.20;49.80;;;;;;5040009;28;19925;-60
2021/04/17 03:14:37;;;;;;;;;;;18.20;49.80;;;;;;5038288;28;19932;-60
2021/04/17 03:17:03;;;;;;;;;;;18.10;49.80;;;;;;5038749;28;19928;-60
2021/04/17 03:19:30;;;;;;;;;;;18.10;49.80;;;;;;5029787;28;20369;-60
2021/04/17 03:21:56;;;;;;;;;;;18.10;49.80;;;;;;5046026;28;19925;-59
2021/04/17 03:24:22;;;;;;;;;;;18.10;49.70;;;;;;5035155;28;20293;-61
2021/04/17 03:26:48;;;;;;;;;;;18.10;49.90;;;;;;5023689;28;19948;-61
2021/04/17 03:29:14;;;;;;;;;;;18.20;49.80;;;;;;5033757;28;19925;-59
2021/04/17 03:31:42;;;;;;;;;;;18.10;49.70;;;;;;5043271;28;19932;-59
2021/04/17 03:34:08;;;;;;;;;;;18.10;49.70;;;;;;5028180;28;20551;-60
2021/04/17 03:36:34;;;;;;;;;;;18.10;49.70;;;;;;5037002;28;19932;-60
2021/04/17 03:39:00;;;;;;;;;;;18.10;49.80;;;;;;5035276;28;21681;-59
2021/04/17 03:41:27;;;;;;;;;;;18.10;49.70;;;;;;5046562;28;19932;-59
2021/04/17 03:43:53;;;;;;;;;;;18.10;49.70;;;;;;5030152;28;19997;-59
2021/04/17 03:46:19;;;;;;;;;;;18.10;49.70;;;;;;5042735;28;20573;-59
2021/04/17 03:48:46;;;;;;;;;;;18.10;49.70;;;;;;5028872;28;19925;-60
2021/04/17 03:51:12;;;;;;;;;;;18.00;49.60;;;;;;5026792;28;19925;-61
2021/04/17 03:53:38;;;;;;;;;;;18.10;49.60;;;;;;5029361;28;19925;-59
2021/04/17 03:56:04;;;;;;;;;;;18.10;49.70;;;;;;5037367;28;19944;-59
2021/04/17 03:58:31;;;;;;;;;;;18.00;49.60;;;;;;5041912;28;20354;-60
2021/04/17 04:00:57;;;;;;;;;;;18.00;49.60;;;;;;5042668;28;19925;-59
2021/04/17 04:03:24;;;;;;;;;;;18.00;49.70;;;;;;5033162;28;19925;-59
2021/04/17 04:05:50;;;;;;;;;;;18.00;49.60;;;;;;5039405;28;19925;-60
2021/04/17 04:08:16;;;;;;;;;;;18.00;49.60;;;;;;5035098;28;20398;-59
2021/04/17 04:10:43;;;;;;;;;;;18.00;49.60;;;;;;5038891;28;20412;-60
2021/04/17 04:13:09;;;;;;;;;;;18.00;49.60;;;;;;5035542;28;19924;-60
2021/04/17 04:15:35;;;;;;;;;;;18.00;49.60;;;;;;5039858;28;19925;-61
2021/04/17 04:18:02;;;;;;;;;;;18.00;49.60;;;;;;5046868;28;20454;-60
2021/04/17 04:20:28;;;;;;;;;;;18.00;49.60;;;;;;5036592;28;19951;-61
2021/04/17 04:22:54;;;;;;;;;;;18.00;49.60;;;;;;5018937;28;19933;-60
2021/04/17 04:25:32;;;;;;;;;;;18.00;49.60;;;;;;5038233;28;19929;-55
2021/04/17 04:27:59;;;;;;;;;;;18.00;49.60;;;;;;5014123;28;20392;-59
2021/04/17 04:30:26;;;;;;;;;;;18.00;49.60;;;;;;5034917;28;21360;-58
2021/04/17 04:33:09;;;;;;;;;;;17.90;49.60;;;;;;5028622;28;19925;-61
2021/04/17 04:35:38;;;;;;;;;;;17.90;49.60;;;;;;5032978;28;19909;-56
2021/04/17 04:38:04;;;;;;;;;;;17.90;49.40;;;;;;5048607;28;21984;-55
2021/04/17 04:40:35;;;;;;;;;;;17.90;49.50;;;;;;5030234;28;21719;-55
2021/04/17 04:43:02;;;;;;;;;;;17.90;49.50;;;;;;5040448;28;21137;-55
2021/04/17 04:45:28;;;;;;;;;;;17.90;49.50;;;;;;5050170;28;19925;-56
2021/04/17 04:47:54;;;;;;;;;;;17.90;49.50;;;;;;5045333;28;19928;-55
2021/04/17 04:50:41;;;;;;;;;;;17.90;49.50;;;;;;5048473;28;19944;-56
2021/04/17 04:53:07;;;;;;;;;;;17.90;49.40;;;;;;5048365;28;22791;-57
2021/04/17 04:55:33;;;;;;;;;;;17.90;49.40;;;;;;5049650;28;20316;-56
2021/04/17 04:58:00;;;;;;;;;;;17.90;49.40;;;;;;5049168;28;21202;-56
2021/04/17 05:03:33;;;;;;;;;;;17.90;49.40;;;;;;5026835;28;20177;-56
2021/04/17 05:05:59;;;;;;;;;;;17.90;50.00;;;;;;5030332;28;19924;-57
2021/04/17 05:08:25;;;;;;;;;;;17.90;49.40;;;;;;5049476;28;19940;-55
2021/04/17 05:10:51;;;;;;;;;;;17.80;49.40;;;;;;5047692;28;19925;-55
2021/04/17 05:13:18;;;;;;;;;;;17.80;49.40;;;;;;5046689;28;19936;-55
2021/04/17 05:15:44;;;;;;;;;;;17.80;49.40;;;;;;5049743;28;19951;-55
2021/04/17 05:18:10;;;;;;;;;;;17.80;49.40;;;;;;5048574;28;20354;-55
2021/04/17 05:20:42;;;;;;;;;;;17.80;49.50;;;;;;5048670;28;19929;-55
2021/04/17 05:23:08;;;;;;;;;;;17.80;49.50;;;;;;5048617;28;19925;-54
2021/04/17 05:25:34;;;;;;;;;;;17.80;49.40;;;;;;5048005;28;19931;-56
2021/04/17 05:28:00;;;;;;;;;;;17.80;49.40;;;;;;5048380;28;21191;-56
2021/04/17 05:30:41;;;;;;;;;;;17.80;49.40;;;;;;5048774;28;20348;-56
2021/04/17 05:33:08;;;;;;;;;;;17.80;49.40;;;;;;5044567;28;19979;-57
2021/04/17 05:35:34;;;;;;;;;;;17.80;49.30;;;;;;5052375;28;19925;-56
2021/04/17 05:38:00;;;;;;;;;;;17.80;49.30;;;;;;5044641;28;20788;-56
2021/04/17 05:40:27;;;;;;;;;;;17.80;49.30;;;;;;5050571;28;19933;-56
2021/04/17 05:42:53;;;;;;;;;;;17.80;49.20;;;;;;5041690;28;19940;-56
2021/04/17 05:45:19;;;;;;;;;;;17.80;49.20;;;;;;5051168;28;19932;-56
2021/04/17 05:47:45;;;;;;;;;;;17.80;49.20;;;;;;5042505;28;19925;-56
2021/04/17 05:50:26;;;;;;;;;;;17.80;49.20;;;;;;5052417;28;19971;-56
2021/04/17 05:52:55;;;;;;;;;;;17.80;49.20;;;;;;5050204;28;20906;-56
2021/04/17 05:55:21;;;;;;;;;;;17.70;49.20;;;;;;5052491;28;19924;-56
2021/04/17 05:57:47;;;;;;;;;;;17.80;49.20;;;;;;5049653;28;20469;-54
2021/04/17 06:00:13;;;;;;;;;;;17.80;49.80;;;;;;5052532;28;19932;-55
2021/04/17 06:02:39;;;;;;;;;;;17.80;49.20;;;;;;5041904;28;19932;-56
2021/04/17 06:05:06;;;;;;;;;;;17.70;49.10;;;;;;5051482;28;19925;-55
2021/04/17 06:07:32;;;;;;;;;;;17.70;49.00;;;;;;5049594;28;19928;-55
2021/04/17 06:09:59;;;;;;;;;;;17.70;49.00;;;;;;5051731;28;19939;-56
2021/04/17 06:12:25;;;;;;;;;;;17.70;49.10;;;;;;5048840;28;19954;-55
2021/04/17 06:14:51;;;;;;;;;;;17.70;49.20;;;;;;5051255;28;19925;-56
2021/04/17 06:17:17;;;;;;;;;;;17.80;49.20;;;;;;5043530;28;20250;-57
2021/04/17 06:19:44;;;;;;;;;;;17.70;49.20;;;;;;5051627;28;20393;-56
2021/04/17 06:22:10;;;;;;;;;;;17.70;49.10;;;;;;5046697;28;19924;-56
2021/04/17 06:24:36;;;;;;;;;;;17.70;49.20;;;;;;5043545;28;19932;-54
2021/04/17 06:27:03;;;;;;;;;;;17.70;49.10;;;;;;5051719;28;19960;-56
2021/04/17 06:29:29;;;;;;;;;;;17.80;49.20;;;;;;5050997;28;19933;-55
2021/04/17 06:31:55;;;;;;;;;;;17.70;49.10;;;;;;5050838;28;20412;-54
2021/04/17 06:34:22;;;;;;;;;;;17.70;49.10;;;;;;5051275;28;19929;-54
2021/04/17 06:36:48;;;;;;;;;;;17.70;49.20;;;;;;5047350;28;19929;-54
2021/04/17 06:39:14;;;;;;;;;;;17.70;49.10;;;;;;5049497;28;19925;-56
2021/04/17 06:41:43;;;;;;;;;;;17.70;49.10;;;;;;5051001;28;19925;-55
2021/04/17 06:44:10;;;;;;;;;;;17.70;49.10;;;;;;5041358;28;19925;-56
2021/04/17 06:46:38;;;;;;;;;;;17.70;49.10;;;;;;5037399;28;19986;-55
2021/04/17 06:49:05;;;;;;;;;;;17.70;49.20;;;;;;5054294;28;20538;-59
2021/04/17 06:51:33;;;;;;;;;;;17.70;49.20;;;;;;5050762;28;20888;-55
2021/04/17 06:53:59;;;;;;;;;;;17.70;49.20;;;;;;5045239;28;19929;-55
2021/04/17 06:56:25;;;;;;;;;;;17.70;49.20;;;;;;5050765;28;19936;-56
2021/04/17 06:58:51;;;;;;;;;;;17.70;49.20;;;;;;5045937;28;19924;-55
2021/04/17 07:04:39;;;;;;;;;;;17.70;49.20;;;;;;5022839;28;20334;-54
2021/04/17 07:07:05;;;;;;;;;;;17.70;49.20;;;;;;5054114;28;19933;-57
2021/04/17 07:09:42;;;;;;;;;;;17.70;49.20;;;;;;5054215;28;19929;-55
2021/04/17 07:12:08;;;;;;;;;;;17.70;49.20;;;;;;5045127;28;21802;-56
2021/04/17 07:14:44;;;;;;;;;;;17.70;49.10;;;;;;5055849;28;19940;-56
2021/04/17 07:17:10;;;;;;;;;;;17.70;49.00;;;;;;5022345;28;20432;-55
2021/04/17 07:19:44;;;;;;;;;;;17.80;49.70;;;;;;5050213;28;19925;-55
2021/04/17 07:22:17;;;;;;;;;;;17.70;49.10;;;;;;5048382;28;19932;-55
2021/04/17 07:24:43;;;;;;;;;;;17.70;49.00;;;;;;5050396;28;19932;-55
2021/04/17 07:27:10;;;;;;;;;;;17.70;49.10;;;;;;5045281;28;20554;-55
2021/04/17 07:32:47;;;;;;;;;;;17.70;49.10;;;;;;5032991;28;22300;-56
2021/04/17 07:35:18;;;;;;;;;;;17.70;49.00;;;;;;5049306;28;19924;-55
2021/04/17 07:37:46;;;;;;;;;;;17.70;49.10;;;;;;5045778;28;20029;-54
2021/04/17 07:40:18;;;;;;;;;;;17.80;49.20;;;;;;5029659;28;20388;-57
2021/04/17 07:42:45;;;;;;;;;;;17.70;49.00;;;;;;5054390;28;19924;-54
2021/04/17 07:45:22;;;;;;;;;;;17.70;49.00;;;;;;5046477;28;19932;-55
2021/04/17 07:47:49;;;;;;;;;;;17.80;49.00;;;;;;5047833;28;20266;-53
2021/04/17 07:50:45;;;;;;;;;;;17.70;49.00;;;;;;5045760;28;19932;-55
2021/04/17 07:53:27;;;;;;;;;;;17.80;49.00;;;;;;5018888;28;20420;-55
2021/04/17 07:55:53;;;;;;;;;;;17.80;49.00;;;;;;5045836;28;20508;-55
2021/04/17 07:58:19;;;;;;;;;;;17.80;49.00;;;;;;5049659;28;19924;-55
2021/04/17 08:00:46;;;;;;;;;;;17.80;49.00;;;;;;5047776;28;20348;-55
2021/04/17 08:03:12;;;;;;;;;;;17.70;48.90;;;;;;5046445;28;19925;-55
2021/04/17 08:05:39;;;;;;;;;;;17.70;48.90;;;;;;5044324;28;19925;-55
2021/04/17 08:08:05;;;;;;;;;;;17.80;49.00;;;;;;5050782;28;19928;-55
2021/04/17 08:10:31;;;;;;;;;;;17.80;49.00;;;;;;5044486;28;20696;-55
2021/04/17 08:12:59;;;;;;;;;;;17.80;49.00;;;;;;5041091;28;19932;-54
2021/04/17 08:15:26;;;;;;;;;;;17.80;50.00;;;;;;5048859;28;20340;-54
2021/04/17 08:17:55;;;;;;;;;;;17.80;50.40;;;;;;5038456;28;20443;-54
2021/04/17 08:20:26;;;;;;;;;;;17.80;50.10;;;;;;5046856;28;19932;-54
2021/04/17 08:22:53;;;;;;;;;;;17.80;50.00;;;;;;5040345;28;19973;-54
2021/04/17 08:25:21;;;;;;;;;;;17.80;49.80;;;;;;5047460;28;21283;-54
2021/04/17 08:27:49;;;;;;;;;;;17.90;49.80;;;;;;5047648;28;20524;-54
2021/04/17 08:30:22;;;;;;;;;;;17.80;49.60;;;;;;5046801;28;19924;-54
2021/04/17 08:32:48;;;;;;;;;;;17.80;49.50;;;;;;5045054;28;19933;-55
2021/04/17 08:35:24;;;;;;;;;;;17.90;49.40;;;;;;5046094;28;19950;-55
2021/04/17 08:37:54;;;;;;;;;;;17.90;49.50;;;;;;5042082;28;19932;-55
2021/04/17 08:40:39;;;;;;;;;;;17.90;49.50;;;;;;5046412;28;20365;-54
2021/04/17 08:43:25;;;;;;;;;;;17.90;49.70;;;;;;5045027;28;21909;-55
2021/04/17 08:45:59;;;;;;;;;;;17.90;49.60;;;;;;5033639;28;19924;-54
2021/04/17 08:48:41;;;;;;;;;;;17.90;49.50;;;;;;5046123;28;20068;-54
2021/04/17 08:51:21;;;;;;;;;;;17.90;49.50;;;;;;5039390;28;20185;-53
2021/04/17 08:53:48;;;;;;;;;;;17.90;49.40;;;;;;5043844;28;19925;-54
2021/04/17 08:56:14;;;;;;;;;;;17.90;49.30;;;;;;5043921;28;19932;-54
2021/04/17 08:58:40;;;;;;;;;;;17.90;49.00;;;;;;5046373;28;19925;-55
2021/04/17 09:01:09;;;;;;;;;;;17.90;49.90;;;;;;5044422;28;20346;-54
2021/04/17 09:03:47;;;;;;;;;;;17.90;49.90;;;;;;5046875;28;20385;-53
2021/04/17 09:06:17;;;;;;;;;;;17.90;50.10;;;;;;5034831;28;21686;-54
2021/04/17 09:08:43;;;;;;;;;;;17.90;50.00;;;;;;5044589;28;20274;-54
2021/04/17 09:14:32;;;;;;;;;;;17.90;49.70;;;;;;5031404;28;21301;-55
2021/04/17 09:17:00;;;;;;;;;;;18.00;49.80;;;;;;5045963;28;19959;-56
2021/04/17 09:19:39;;;;;;;;;;;18.00;49.90;;;;;;5043769;28;19936;-55
2021/04/17 09:22:24;;;;;;;;;;;18.00;49.80;;;;;;5042404;28;20992;-56
2021/04/17 09:24:51;;;;;;;;;;;18.00;49.70;;;;;;5014605;28;19929;-55
2021/04/17 09:27:23;;;;;;;;;;;18.00;49.60;;;;;;5023166;28;20278;-54
2021/04/17 09:30:00;;;;;;;;;;;18.00;49.60;;;;;;5024394;28;20302;-55
2021/04/17 09:32:40;;;;;;;;;;;18.00;49.50;;;;;;5025667;28;19929;-55
2021/04/17 09:35:13;;;;;;;;;;;18.10;49.40;;;;;;5028086;28;20628;-55
2021/04/17 09:37:39;;;;;;;;;;;18.10;49.30;;;;;;5026628;28;19925;-55
2021/04/17 09:40:06;;;;;;;;;;;18.10;49.30;;;;;;5027960;28;19983;-54
2021/04/17 09:42:33;;;;;;;;;;;18.00;49.10;;;;;;5027691;28;20973;-54
2021/04/17 09:45:00;;;;;;;;;;;18.10;49.10;;;;;;5029293;28;19925;-54
2021/04/17 09:47:26;;;;;;;;;;;18.10;48.90;;;;;;5018074;28;19937;-59
2021/04/17 09:49:54;;;;;;;;;;;18.10;48.80;;;;;;5012058;28;20362;-59
2021/04/17 09:52:23;;;;;;;;;;;18.10;48.70;;;;;;5024597;28;19951;-60
2021/04/17 09:55:05;;;;;;;;;;;18.10;49.10;;;;;;5026370;28;19929;-59
2021/04/17 09:57:31;;;;;;;;;;;18.10;49.30;;;;;;5027781;28;20270;-56
2021/04/17 10:00:13;;;;;;;;;;;18.10;49.50;;;;;;5025105;28;20132;-56
2021/04/17 10:02:41;;;;;;;;;;;18.10;49.80;;;;;;5024778;28;20407;-56
2021/04/17 10:05:11;;;;;;;;;;;18.10;50.10;;;;;;5025511;28;19937;-55
2021/04/17 10:07:42;;;;;;;;;;;18.20;50.40;;;;;;5020551;28;19934;-56
2021/04/17 10:10:09;;;;;;;;;;;18.10;50.80;;;;;;5018462;28;19933;-58
2021/04/17 10:12:51;;;;;;;;;;;18.20;50.90;;;;;;5021221;28;20639;-57
2021/04/17 10:15:30;;;;;;;;;;;18.20;51.60;;;;;;5012882;28;20457;-58
2021/04/17 10:17:57;;;;;;;;;;;18.20;51.20;;;;;;5020560;28;19936;-59
2021/04/17 10:20:25;;;;;;;;;;;18.20;51.50;;;;;;5020530;28;19936;-58
2021/04/17 10:22:55;;;;;;;;;;;18.20;51.30;;;;;;5019025;28;19929;-63
2021/04/17 10:25:38;;;;;;;;;;;18.20;52.90;;;;;;5038221;28;20273;-62
2021/04/17 10:28:16;;;;;;;;;;;18.30;52.10;;;;;;5033242;28;20995;-63
2021/04/17 10:30:43;;;;;;;;;;;18.40;51.90;;;;;;5026079;28;20721;-58
2021/04/17 10:33:13;;;;;;;;;;;18.50;52.00;;;;;;5033862;28;19930;-56
2021/04/17 10:35:40;;;;;;;;;;;18.50;51.90;;;;;;5036139;28;19925;-56
2021/04/17 10:38:06;;;;;;;;;;;18.50;51.60;;;;;;5032709;28;19933;-58
2021/04/17 10:40:32;;;;;;;;;;;18.50;51.40;;;;;;5037568;28;20397;-63
2021/04/17 10:43:04;;;;;;;;;;;18.60;51.90;;;;;;5030540;28;20289;-64
2021/04/17 10:45:30;;;;;;;;;;;18.60;51.50;;;;;;5032652;28;20442;-63
2021/04/17 10:47:57;;;;;;;;;;;18.70;51.80;;;;;;5040495;28;19931;-64
2021/04/17 10:50:24;;;;;;;;;;;18.80;52.50;;;;;;5041426;28;19925;-59
2021/04/17 10:53:03;;;;;;;;;;;18.80;52.70;;;;;;5041494;28;19932;-59
2021/04/17 10:55:33;;;;;;;;;;;18.90;51.80;;;;;;5041643;28;19932;-58
2021/04/17 10:57:59;;;;;;;;;;;18.90;51.90;;;;;;5037513;28;19929;-59
2021/04/17 11:00:27;;;;;;;;;;;19.00;51.70;;;;;;5042310;28;19984;-64
2021/04/17 11:02:53;;;;;;;;;;;19.00;51.60;;;;;;5022536;28;19931;-63
2021/04/17 11:05:19;;;;;;;;;;;19.00;51.70;;;;;;5041081;28;20112;-63
2021/04/17 11:07:46;;;;;;;;;;;19.10;52.40;;;;;;5043182;28;19936;-62
2021/04/17 11:10:12;;;;;;;;;;;19.10;53.80;;;;;;5039437;28;19924;-61
2021/04/17 11:12:39;;;;;;;;;;;19.30;52.70;;;;;;5035878;28;19982;-61
2021/04/17 11:15:11;;;;;;;;;;;19.40;53.70;;;;;;5035746;28;19929;-61
2021/04/17 11:17:38;;;;;;;;;;;19.40;53.30;;;;;;5038943;28;19951;-60
2021/04/17 11:20:18;;;;;;;;;;;19.40;54.60;;;;;;5026288;28;19933;-63
2021/04/17 11:22:44;;;;;;;;;;;19.60;54.10;;;;;;5021334;28;20462;-63
2021/04/17 11:25:10;;;;;;;;;;;19.60;53.80;;;;;;5041274;28;19925;-62
2021/04/17 11:27:37;;;;;;;;;;;19.70;53.70;;;;;;5043603;28;19968;-63
2021/04/17 11:30:05;;;;;;;;;;;19.80;53.60;;;;;;5024053;28;19929;-63
2021/04/17 11:32:32;;;;;;;;;;;19.90;53.70;;;;;;5038687;28;20482;-63
2021/04/17 11:34:58;;;;;;;;;;;19.90;51.90;;;;;;5034299;28;20305;-63
2021/04/17 11:37:29;;;;;;;;;;;19.90;54.30;;;;;;5045355;28;19968;-59
2021/04/17 11:39:56;;;;;;;;;;;19.90;54.90;;;;;;5037726;28;19932;-59
2021/04/17 11:42:23;;;;;;;;;;;20.00;55.90;;;;;;5034623;28;20560;-59
2021/04/17 11:44:49;;;;;;;;;;;20.10;57.60;;;;;;5028019;28;19932;-55
2021/04/17 11:47:15;;;;;;;;;;;20.10;55.00;;;;;;5031893;28;19924;-56
2021/04/17 11:49:53;;;;;;;;;;;19.90;55.10;;;;;;5041583;28;19924;-56
2021/04/17 11:52:19;;;;;;;;;;;19.90;55.10;;;;;;5044343;28;20378;-55
2021/04/17 11:54:47;;;;;;;;;;;19.90;54.70;;;;;;5040777;28;19929;-56
2021/04/17 11:57:13;;;;;;;;;;;19.90;54.60;;;;;;5035186;28;19939;-55
2021/04/17 11:59:40;;;;;;;;;;;19.80;54.10;;;;;;5037769;28;20210;-56
2021/04/17 12:02:06;;;;;;;;;;;19.90;53.80;;;;;;5034482;28;19929;-59
2021/04/17 12:04:32;;;;;;;;;;;19.90;54.30;;;;;;5039256;28;19979;-56
2021/04/17 12:06:59;;;;;;;;;;;19.90;54.10;;;;;;5035549;28;20034;-56
2021/04/17 12:09:30;;;;;;;;;;;19.90;54.10;;;;;;5038452;28;19929;-56
2021/04/17 12:11:56;;;;;;;;;;;19.90;53.90;;;;;;5034239;28;19943;-56
2021/04/17 12:14:22;;;;;;;;;;;19.90;53.60;;;;;;5034373;28;20498;-56
2021/04/17 12:16:48;;;;;;;;;;;19.90;53.30;;;;;;5037278;28;19944;-56
2021/04/17 12:19:15;;;;;;;;;;;20.00;53.70;;;;;;5019022;28;20354;-56
2021/04/17 12:21:41;;;;;;;;;;;20.10;53.40;;;;;;5039687;28;19925;-56
2021/04/17 12:24:07;;;;;;;;;;;20.20;53.50;;;;;;5036640;28;19933;-57
2021/04/17 12:26:33;;;;;;;;;;;20.20;55.00;;;;;;5037983;28;19982;-56
2021/04/17 12:28:59;;;;;;;;;;;20.30;55.20;;;;;;5037471;28;19925;-56
2021/04/17 12:31:31;;;;;;;;;;;20.40;55.50;;;;;;5029137;28;19956;-56
2021/04/17 12:33:57;;;;;;;;;;;20.40;56.00;;;;;;5043712;28;19929;-56
2021/04/17 12:36:24;;;;;;;;;;;20.50;56.20;;;;;;5020797;28;19940;-57
2021/04/17 12:38:50;;;;;;;;;;;20.50;56.60;;;;;;5034290;28;19990;-57
2021/04/17 12:41:16;;;;;;;;;;;20.60;56.10;;;;;;5044298;28;19929;-55
2021/04/17 12:43:42;;;;;;;;;;;20.70;56.80;;;;;;5049226;28;19932;-57
2021/04/17 12:46:09;;;;;;;;;;;20.60;56.90;;;;;;5046167;28;19952;-56
2021/04/17 12:48:35;;;;;;;;;;;20.70;57.00;;;;;;5046121;28;19931;-55
2021/04/17 12:51:02;;;;;;;;;;;20.80;57.10;;;;;;5045651;28;20827;-55
2021/04/17 12:53:28;;;;;;;;;;;20.80;57.30;;;;;;5049193;28;19929;-55
2021/04/17 12:55:54;;;;;;;;;;;20.90;56.10;;;;;;5047913;28;19924;-55
2021/04/17 12:58:21;;;;;;;;;;;20.90;56.50;;;;;;5051409;28;19925;-54
2021/04/17 13:00:47;;;;;;;;;;;20.90;56.40;;;;;;5050168;28;19987;-56
2021/04/17 13:03:13;;;;;;;;;;;20.90;56.40;;;;;;5051987;28;20389;-56
2021/04/17 13:05:40;;;;;;;;;;;20.90;56.80;;;;;;5034430;28;19933;-56
2021/04/17 13:08:06;;;;;;;;;;;21.00;56.90;;;;;;5055292;28;19925;-56
2021/04/17 13:10:32;;;;;;;;;;;21.00;56.70;;;;;;5049404;28;20747;-57
2021/04/17 13:12:58;;;;;;;;;;;21.00;56.50;;;;;;5046864;28;19929;-57
2021/04/17 13:15:25;;;;;;;;;;;21.10;55.70;;;;;;5050939;28;20003;-57
2021/04/17 13:17:52;;;;;;;;;;;21.20;55.50;;;;;;5047072;28;19929;-57
2021/04/17 13:20:18;;;;;;;;;;;21.10;55.50;;;;;;5048104;28;19939;-56
2021/04/17 13:22:44;;;;;;;;;;;21.10;55.50;;;;;;5041397;28;19929;-57
2021/04/17 13:25:11;;;;;;;;;;;21.20;55.60;;;;;;5046332;28;19925;-57
2021/04/17 13:27:37;;;;;;;;;;;21.20;55.70;;;;;;5041156;28;19936;-63
2021/04/17 13:30:04;;;;;;;;;;;21.20;54.50;;;;;;5046012;28;19928;-61
2021/04/17 13:32:30;;;;;;;;;;;21.10;54.60;;;;;;5051467;28;19951;-56
2021/04/17 13:34:57;;;;;;;;;;;21.10;53.70;;;;;;5047928;28;19932;-56
2021/04/17 13:37:25;;;;;;;;;;;21.20;55.20;;;;;;5041130;28;19978;-56
2021/04/17 13:39:51;;;;;;;;;;;21.40;54.60;;;;;;5041801;28;19936;-56
2021/04/17 13:42:20;;;;;;;;;;;21.50;54.20;;;;;;5045316;28;19932;-56
2021/04/17 13:44:46;;;;;;;;;;;21.50;54.90;;;;;;5044076;28;19929;-56
2021/04/17 13:47:12;;;;;;;;;;;21.50;54.90;;;;;;5045507;28;19931;-56
2021/04/17 13:49:39;;;;;;;;;;;21.60;54.70;;;;;;5045487;28;19935;-56
2021/04/17 13:52:05;;;;;;;;;;;21.60;54.20;;;;;;5045532;28;19924;-56
2021/04/17 13:54:32;;;;;;;;;;;21.60;54.20;;;;;;5047265;28;19925;-56
2021/04/17 13:56:58;;;;;;;;;;;21.50;54.40;;;;;;5031045;28;19929;-56
2021/04/17 13:59:24;;;;;;;;;;;21.40;55.10;;;;;;5046699;28;19933;-56
2021/04/17 14:01:50;;;;;;;;;;;21.30;55.30;;;;;;5047039;28;19932;-56
2021/04/17 14:04:19;;;;;;;;;;;21.20;55.00;;;;;;5037762;28;19931;-56
2021/04/17 14:06:45;;;;;;;;;;;21.20;54.80;;;;;;5045789;28;19925;-61
2021/04/17 14:09:11;;;;;;;;;;;21.20;54.20;;;;;;5044474;28;19933;-62
2021/04/17 14:11:37;;;;;;;;;;;21.20;53.70;;;;;;5043307;28;19925;-62
2021/04/17 14:14:05;;;;;;;;;;;21.10;53.50;;;;;;5045842;28;20289;-62
2021/04/17 14:16:31;;;;;;;;;;;21.10;53.50;;;;;;5047165;28;19947;-61
2021/04/17 14:18:57;;;;;;;;;;;21.10;53.70;;;;;;5041258;28;19925;-62
2021/04/17 14:21:29;;;;;;;;;;;21.10;53.70;;;;;;5047681;28;19932;-62
2021/04/17 14:23:55;;;;;;;;;;;21.10;53.70;;;;;;5046285;28;19925;-62
2021/04/17 14:26:21;;;;;;;;;;;21.10;53.20;;;;;;5048295;28;19932;-61
2021/04/17 14:28:47;;;;;;;;;;;21.10;53.20;;;;;;5046972;28;19925;-62
2021/04/17 14:31:15;;;;;;;;;;;21.10;52.40;;;;;;5045793;28;19979;-55
2021/04/17 14:33:42;;;;;;;;;;;21.10;52.20;;;;;;5045458;28;19926;-56
2021/04/17 14:36:12;;;;;;;;;;;21.20;53.40;;;;;;5046518;28;19925;-56